Forside
METAR-TAF:

METAR-TAF

Lufthavne :

Benbecula, Skotland

Breddekreds: 57-28N, længdekreds: 007-22W, højde: 6 m

Aktuelle vejr

Denne rapport blev lavet for 25 minutter siden, kl. 13:50 UTC
Vind 12 kt fra nordvest
Temperatur 8°C
Fugtighed 76%
Tryk 1035 hPa
Sigt 10 km eller mere
Brudte skyer i en højde af 2500 ft

METAR: EGPL 311350Z 31012KT 9999 BKN025 08/04 Q1035

Tid: 15:15 (14:15 UTC)

Vejrudsigter

Denne rapport blev lavet for 3 timer og 12 minutter siden, kl. 11:03 UTC
Foreløbig gælder fra 31 på 12 UTC til 31 på 21 UTC
Vind 9 kt fra nordvest
Sigt 10 km eller mere
Spredte skyer i en højde af 3000 ft
Midlertidig
fra 31 på 12 UTC til 31 på 21 UTC
Vind 15 kt fra nordnordvest med vindstød på up til 25 kt
Sigt: 6000 m
Brudte skyer i en højde af 1400 ft
regnbyger

TAF: EGPL 311103Z 3112/3121 32009KT 9999 SCT030 TEMPO 3112/3121 33015G25KT 6000 SHRA BKN014

Vejrobservationer og prognoser fra mere end 4000 lufthavne (METAR og TAF).

De gule og røde prikker repræsenterer de meteorologiske stationer.

Flyt musen over at se navnet på stationen.

Så klik over at se vejr observationer og prognoser.

At skifte det kort: Klik på de grønne knapper med et sort kors for at zoome ind; på den grønne knap med en bindestreg for at zoome ud; eller på de grønne pile for tilstødende kort.


METAR-TAF: